Time;durP1;ratioP1;P1;durP2;ratioP2;P2;SDS_P1;SDS_P2;PMS_P1;PMS_P2;Temp;Humidity;BMP_temperature;BMP_pressure;BME280_temperature;BME280_humidity;BME280_pressure;Samples;Min_cycle;Max_cycle;Signal;HPM_P1;HPM_P2
2022/03/23 00:00:39;;;;;;;29.23;14.85;;;;;;;5.58;56.57;102907.22;5113265;27;20614;-66
2022/03/23 00:03:07;;;;;;;29.40;14.45;;;;;;;5.49;56.95;102904.38;5113580;28;20139;-68
2022/03/23 00:05:34;;;;;;;32.13;15.60;;;;;;;5.42;57.27;102898.13;5112205;27;22151;-68
2022/03/23 00:08:01;;;;;;;28.35;15.27;;;;;;;5.37;57.74;102902.38;5113653;27;20043;-67
2022/03/23 00:10:29;;;;;;;27.58;15.23;;;;;;;5.33;57.86;102900.50;5114096;27;20476;-67
2022/03/23 00:12:58;;;;;;;31.17;15.18;;;;;;;5.28;57.95;102913.47;5110574;28;20055;-67
2022/03/23 00:15:27;;;;;;;29.65;15.05;;;;;;;5.26;58.25;102911.69;5115051;27;20124;-67
2022/03/23 00:17:55;;;;;;;26.80;15.23;;;;;;;5.19;58.15;102918.47;5114503;27;20498;-68
2022/03/23 00:20:23;;;;;;;30.00;15.30;;;;;;;5.13;58.64;102905.25;5113257;28;20051;-68
2022/03/23 00:22:51;;;;;;;32.85;15.30;;;;;;;5.11;58.98;102906.94;5114443;27;20510;-68
2022/03/23 00:25:19;;;;;;;30.23;14.93;;;;;;;5.10;59.13;102906.03;5115131;28;20048;-67
2022/03/23 00:27:46;;;;;;;30.95;15.02;;;;;;;5.04;58.74;102907.59;5115151;28;20044;-68
2022/03/23 00:30:13;;;;;;;29.88;16.08;;;;;;;5.01;59.21;102910.16;5114828;27;20076;-67
2022/03/23 00:32:41;;;;;;;27.23;15.27;;;;;;;5.04;59.98;102912.84;5114621;28;20106;-68
2022/03/23 00:35:08;;;;;;;30.05;16.20;;;;;;;5.13;60.20;102916.59;5114436;27;20143;-67
2022/03/23 00:37:37;;;;;;;32.63;15.73;;;;;;;5.21;60.00;102902.81;5112752;27;20036;-68
2022/03/23 00:40:05;;;;;;;28.15;14.98;;;;;;;5.34;59.90;102907.50;5110092;28;20078;-67
2022/03/23 00:42:32;;;;;;;30.70;15.68;;;;;;;5.40;59.67;102907.66;5113105;27;20773;-67
2022/03/23 00:44:59;;;;;;;31.30;14.77;;;;;;;5.38;59.32;102898.00;5111692;28;20082;-67
2022/03/23 00:47:26;;;;;;;31.17;15.30;;;;;;;5.36;58.91;102902.31;5110424;28;20056;-66
2022/03/23 00:49:53;;;;;;;25.63;14.90;;;;;;;5.28;58.57;102907.38;5113302;27;20039;-66
2022/03/23 00:52:20;;;;;;;29.25;15.38;;;;;;;5.16;58.70;102900.09;5107140;28;20071;-66
2022/03/23 00:54:47;;;;;;;27.58;14.90;;;;;;;5.08;59.38;102904.25;5109549;27;20047;-66
2022/03/23 00:57:15;;;;;;;30.05;16.20;;;;;;;5.10;59.60;102899.94;5110215;28;20043;-66
2022/03/23 00:59:42;;;;;;;26.40;15.57;;;;;;;5.13;59.56;102905.25;5110149;28;20045;-66
2022/03/23 01:02:10;;;;;;;35.67;16.35;;;;;;;5.08;59.15;102899.00;5111359;27;20066;-68
2022/03/23 01:04:37;;;;;;;25.45;14.65;;;;;;;4.99;58.89;102912.72;5112539;27;20048;-67
2022/03/23 01:07:05;;;;;;;29.60;15.18;;;;;;;4.87;59.01;102901.97;5110398;27;20047;-66
2022/03/23 01:09:35;;;;;;;24.42;14.35;;;;;;;4.76;59.15;102906.88;5113355;27;20048;-68
2022/03/23 01:12:03;;;;;;;29.73;15.90;;;;;;;4.64;59.47;102903.09;5113228;27;20044;-67
2022/03/23 01:14:30;;;;;;;27.52;14.88;;;;;;;4.54;59.23;102905.41;5112492;27;20040;-68
2022/03/23 01:16:57;;;;;;;30.45;15.95;;;;;;;4.44;59.48;102906.88;5112726;27;20520;-66
2022/03/23 01:19:27;;;;;;;30.02;15.38;;;;;;;4.35;59.46;102904.91;5109723;28;20072;-68
2022/03/23 01:21:54;;;;;;;31.23;15.70;;;;;;;4.29;59.70;102905.63;5121177;27;20093;-67
2022/03/23 01:24:22;;;;;;;31.83;15.95;;;;;;;4.24;59.75;102901.97;5109814;28;20194;-67
2022/03/23 01:26:49;;;;;;;28.98;15.63;;;;;;;4.18;60.11;102900.06;5112170;27;20479;-67
2022/03/23 01:29:17;;;;;;;24.38;14.55;;;;;;;4.13;60.10;102901.66;5112590;27;20052;-66
2022/03/23 01:31:46;;;;;;;26.73;15.70;;;;;;;4.07;60.01;102905.81;5113268;27;20041;-67
2022/03/23 01:34:14;;;;;;;29.20;15.27;;;;;;;4.00;60.04;102904.75;5112817;27;20036;-64
2022/03/23 01:36:42;;;;;;;31.25;15.73;;;;;;;3.93;59.97;102901.06;5110600;28;20525;-65
2022/03/23 01:39:09;;;;;;;29.15;15.55;;;;;;;3.86;60.34;102896.50;5112340;27;20051;-66
2022/03/23 01:41:38;;;;;;;29.23;15.80;;;;;;;3.80;60.22;102888.50;5112010;27;20040;-64
2022/03/23 01:44:19;;;;;;;27.25;15.50;;;;;;;3.76;60.71;102897.97;5113581;27;20066;-66
2022/03/23 01:47:08;;;;;;;29.17;15.85;;;;;;;3.72;60.96;102898.69;5108437;27;20032;-66
2022/03/23 01:49:52;;;;;;;27.67;15.18;;;;;;;3.71;61.46;102889.97;5122552;27;20094;-66
2022/03/23 01:52:24;;;;;;;31.63;16.27;;;;;;;3.72;61.67;102896.06;5107891;28;20036;-67
2022/03/23 01:54:52;;;;;;;28.45;14.70;;;;;;;3.72;61.96;102894.34;5112007;27;21006;-66
2022/03/23 01:57:22;;;;;;;29.23;15.68;;;;;;;3.73;61.67;102890.91;5111034;28;20040;-67
2022/03/23 01:59:56;;;;;;;31.67;15.80;;;;;;;3.69;61.71;102883.84;5124600;27;20689;-66
2022/03/23 02:02:24;;;;;;;30.77;16.15;;;;;;;3.69;62.54;102880.31;5128822;27;20044;-66
2022/03/23 02:04:56;;;;;;;33.05;15.93;;;;;;;3.71;62.78;102876.91;5106531;28;20379;-67
2022/03/23 02:07:24;;;;;;;30.17;16.35;;;;;;;3.74;62.61;102870.94;5109895;27;20048;-67
2022/03/23 02:09:53;;;;;;;35.00;16.52;;;;;;;3.79;63.04;102876.28;5110492;28;20450;-67
2022/03/23 02:12:30;;;;;;;34.25;16.23;;;;;;;3.84;63.15;102872.97;5111828;27;20067;-67
2022/03/23 02:15:12;;;;;;;31.08;15.52;;;;;;;3.86;62.96;102879.13;5112592;27;20044;-67
2022/03/23 02:17:42;;;;;;;33.67;16.30;;;;;;;3.92;63.13;102869.69;5109268;28;20510;-66
2022/03/23 02:20:11;;;;;;;32.88;16.75;;;;;;;3.99;63.20;102869.03;5119403;27;20055;-66
2022/03/23 02:22:39;;;;;;;37.72;17.98;;;;;;;3.99;63.50;102872.56;5126515;27;20589;-67
2022/03/23 02:25:08;;;;;;;32.33;16.58;;;;;;;4.01;63.13;102869.97;5128763;27;20121;-68
2022/03/23 02:27:38;;;;;;;32.22;16.70;;;;;;;3.97;62.91;102879.44;5112599;27;20048;-67
2022/03/23 02:30:09;;;;;;;31.38;16.00;;;;;;;3.87;62.34;102880.00;5112473;27;20099;-66
2022/03/23 02:32:36;;;;;;;35.45;17.13;;;;;;;3.79;62.55;102879.75;5111867;27;20801;-66
2022/03/23 02:35:08;;;;;;;30.58;16.13;;;;;;;3.70;62.41;102872.56;5109296;27;20047;-65
2022/03/23 02:37:35;;;;;;;31.77;16.73;;;;;;;3.62;62.41;102879.25;5111877;27;20043;-66
2022/03/23 02:40:03;;;;;;;31.58;15.98;;;;;;;3.54;62.64;102870.28;5112182;28;20044;-66
2022/03/23 02:42:31;;;;;;;35.38;17.38;;;;;;;3.54;63.46;102870.28;5111203;28;20505;-67
2022/03/23 02:44:58;;;;;;;33.45;17.63;;;;;;;3.63;63.71;102874.91;5111447;27;20047;-67
2022/03/23 02:47:25;;;;;;;30.45;16.10;;;;;;;3.66;63.51;102869.81;5111445;27;20040;-68
2022/03/23 02:49:52;;;;;;;32.22;16.20;;;;;;;3.71;63.84;102866.47;5111602;27;20040;-67
2022/03/23 02:52:19;;;;;;;34.40;18.05;;;;;;;3.77;63.71;102867.53;5107999;27;20579;-66
2022/03/23 03:03:56;;;;;;;;;;;;;;;3.42;63.17;102878.63;5097857;27;20064;-67
2022/03/23 03:06:23;;;;;;;28.98;16.77;;;;;;;3.34;63.59;102873.16;5114747;28;20862;-68
2022/03/23 03:08:51;;;;;;;30.48;17.33;;;;;;;3.28;63.28;102875.56;5113208;27;20400;-68
2022/03/23 03:11:20;;;;;;;32.75;16.63;;;;;;;3.18;63.19;102874.38;5112140;28;20132;-68
2022/03/23 03:13:49;;;;;;;30.85;15.80;;;;;;;3.12;63.48;102879.41;5110857;28;20138;-68
2022/03/23 03:16:18;;;;;;;28.27;16.15;;;;;;;3.03;63.42;102884.31;5111252;28;20036;-69
2022/03/23 03:18:49;;;;;;;30.20;16.30;;;;;;;2.95;63.77;102889.25;5111472;27;20040;-68
2022/03/23 03:21:18;;;;;;;29.95;16.45;;;;;;;2.87;63.71;102880.28;5106249;27;20045;-67
2022/03/23 03:23:47;;;;;;;37.60;17.27;;;;;;;2.79;63.96;102888.72;5110239;28;20123;-67
2022/03/23 03:26:17;;;;;;;35.42;17.40;;;;;;;2.75;63.88;102888.53;5109288;27;20048;-67
2022/03/23 03:28:45;;;;;;;31.23;15.75;;;;;;;2.70;63.67;102879.69;5110387;27;20060;-66
2022/03/23 03:31:15;;;;;;;33.17;16.83;;;;;;;2.64;63.85;102889.09;5110919;27;20062;-68
2022/03/23 03:33:43;;;;;;;32.78;15.68;;;;;;;2.63;64.50;102895.13;5110616;27;20171;-67
2022/03/23 03:36:11;;;;;;;36.30;17.17;;;;;;;2.62;64.62;102882.03;5111082;27;20044;-65
2022/03/23 03:38:41;;;;;;;34.40;17.23;;;;;;;-147.05;100.00;58721.66;5111391;27;20045;-66
2022/03/23 03:41:09;;;;;;;33.50;17.45;;;;;;;2.57;65.02;102887.06;5111125;28;20115;-66
2022/03/23 03:43:37;;;;;;;33.40;17.30;;;;;;;2.62;65.58;102892.44;5110653;27;20052;-66
2022/03/23 03:46:10;;;;;;;29.75;16.63;;;;;;;2.69;65.64;102898.75;5108530;28;20117;-66
2022/03/23 03:48:40;;;;;;;33.47;16.55;;;;;;;2.70;65.13;102896.19;5108480;28;20059;-66
2022/03/23 03:51:09;;;;;;;29.58;16.15;;;;;;;2.69;64.77;102890.94;5108596;27;20048;-65
2022/03/23 03:53:37;;;;;;;33.35;17.35;;;;;;;2.66;64.71;102891.72;5108782;27;20518;-66
2022/03/23 03:56:09;;;;;;;32.88;16.75;;;;;;;2.62;65.35;102901.16;5111460;27;20113;-66
2022/03/23 03:58:38;;;;;;;36.00;16.25;;;;;;;2.65;65.65;102889.94;5110520;27;20044;-67
2022/03/23 04:01:06;;;;;;;37.58;17.13;;;;;;;2.71;65.70;102900.56;5109553;27;20036;-66
2022/03/23 04:03:34;;;;;;;30.98;16.65;;;;;;;2.75;65.44;102896.34;5109656;27;20036;-67
2022/03/23 04:06:04;;;;;;;27.83;16.30;;;;;;;2.76;65.17;102904.25;5110796;27;20044;-66
2022/03/23 04:08:31;;;;;;;34.28;16.02;;;;;;;2.77;65.62;102894.69;5110232;27;20051;-66
2022/03/23 04:10:58;;;;;;;30.02;16.48;;;;;;;2.82;65.59;102892.25;5105897;28;20539;-68
2022/03/23 04:13:25;;;;;;;36.38;17.50;;;;;;;2.88;65.66;102895.97;5110883;27;20089;-66
2022/03/23 04:15:52;;;;;;;34.13;16.83;;;;;;;2.97;65.39;102903.22;5108837;27;20044;-66
2022/03/23 04:18:19;;;;;;;35.53;16.75;;;;;;;3.04;65.55;102907.78;5108144;27;20525;-66
2022/03/23 04:20:46;;;;;;;29.20;15.95;;;;;;;3.09;65.06;102911.47;5108511;27;20453;-66
2022/03/23 04:23:14;;;;;;;33.40;16.80;;;;;;;3.06;64.78;102908.75;5110861;27;20036;-66
2022/03/23 04:25:42;;;;;;;31.13;16.30;;;;;;;3.01;64.73;102906.81;5110296;27;20036;-67
2022/03/23 04:28:09;;;;;;;31.77;17.23;;;;;;;2.90;64.63;102906.47;5110552;27;20051;-65
2022/03/23 04:30:37;;;;;;;33.92;16.98;;;;;;;2.83;64.82;102910.56;5109251;28;20052;-65
2022/03/23 04:33:05;;;;;;;40.10;16.52;;;;;;;2.78;64.61;102906.91;5108228;28;20045;-66
2022/03/23 04:35:32;;;;;;;35.65;16.52;;;;;;;2.72;64.77;102904.94;5109850;27;20090;-66
2022/03/23 04:37:59;;;;;;;33.03;16.30;;;;;;;2.66;64.82;102909.97;5114434;27;20043;-65
2022/03/23 04:40:26;;;;;;;29.15;16.83;;;;;;;2.58;64.92;102917.50;5113910;27;20940;-65
2022/03/23 04:42:53;;;;;;;31.98;17.25;;;;;;;2.49;65.02;102917.16;5114234;27;20470;-65
2022/03/23 04:45:20;;;;;;;30.13;16.58;;;;;;;2.43;64.87;102917.81;5112142;27;20036;-66
2022/03/23 04:47:47;;;;;;;33.33;17.55;;;;;;;2.38;65.03;102921.06;5114361;28;20067;-66
2022/03/23 04:50:19;;;;;;;33.78;17.23;;;;;;;2.32;65.38;102913.94;5112073;27;20060;-66
2022/03/23 04:52:48;;;;;;;36.08;17.33;;;;;;;2.26;65.27;102924.13;5102193;27;20071;-66
2022/03/23 04:55:15;;;;;;;34.03;17.48;;;;;;;2.21;65.48;102923.03;5105271;27;20137;-67
2022/03/23 04:57:44;;;;;;;32.78;18.15;;;;;;;2.15;65.61;102924.59;5114803;27;20492;-67
2022/03/23 05:00:16;;;;;;;32.53;17.70;;;;;;;2.10;65.63;102920.91;5117544;27;20052;-66
2022/03/23 05:02:45;;;;;;;33.10;17.17;;;;;;;2.06;65.82;102920.75;5125797;27;20124;-67
2022/03/23 05:05:14;;;;;;;36.47;18.17;;;;;;;2.01;65.60;102928.38;5110219;28;20493;-66
2022/03/23 05:07:43;;;;;;;36.13;17.77;;;;;;;1.96;65.59;102932.53;5113204;27;20036;-67
2022/03/23 05:10:13;;;;;;;32.50;17.67;;;;;;;1.90;66.21;102930.56;5112855;27;20044;-66
2022/03/23 05:12:46;;;;;;;35.58;17.25;;;;;;;1.87;66.14;102935.66;5108750;28;20048;-66
2022/03/23 05:15:16;;;;;;;33.92;18.13;;;;;;;1.80;66.27;102924.09;5112120;27;20044;-66
2022/03/23 05:17:45;;;;;;;38.28;18.17;;;;;;;1.78;66.87;102930.09;5113764;27;20051;-66
2022/03/23 05:20:15;;;;;;;39.20;18.65;;;;;;;1.78;66.98;102932.69;5112092;27;20036;-66
2022/03/23 05:22:42;;;;;;;38.15;18.17;;;;;;;1.74;66.92;102933.38;5112054;28;20833;-66
2022/03/23 05:25:10;;;;;;;34.88;17.83;;;;;;;1.70;66.78;102933.28;5112944;27;20477;-66
2022/03/23 05:27:42;;;;;;;35.40;17.58;;;;;;;1.70;67.44;102929.78;5112864;28;20131;-67
2022/03/23 05:30:11;;;;;;;37.25;19.05;;;;;;;1.72;67.66;102930.72;5110813;27;20048;-66
2022/03/23 05:32:42;;;;;;;37.53;18.77;;;;;;;1.72;67.27;102935.94;5111300;28;20520;-65
2022/03/23 05:35:11;;;;;;;36.42;17.92;;;;;;;1.69;67.50;102936.69;5107057;27;20568;-66
2022/03/23 05:37:38;;;;;;;33.60;18.58;;;;;;;1.68;67.50;102937.53;5112378;27;20037;-64
2022/03/23 05:40:10;;;;;;;40.15;18.70;;;;;;;1.71;67.91;102941.94;5109309;27;20756;-66
2022/03/23 05:42:39;;;;;;;33.65;17.80;;;;;;;1.76;68.24;102944.75;5111667;28;20520;-67
2022/03/23 05:45:08;;;;;;;38.47;17.67;;;;;;;1.81;68.24;102940.63;5106748;27;20501;-67
2022/03/23 05:47:37;;;;;;;35.28;17.88;;;;;;;1.85;67.67;102946.00;5111071;27;20040;-66
2022/03/23 05:50:08;;;;;;;36.58;17.85;;;;;;;1.89;68.77;102946.09;5113083;27;20048;-67
2022/03/23 05:52:38;;;;;;;36.92;18.52;;;;;;;1.96;68.69;102946.41;5111918;27;20043;-67
2022/03/23 05:55:07;;;;;;;34.65;18.15;;;;;;;1.97;67.94;102950.78;5112175;28;20043;-67
2022/03/23 05:57:35;;;;;;;38.80;18.48;;;;;;;1.96;68.20;102940.34;5109990;27;20146;-66
2022/03/23 06:00:06;;;;;;;34.10;17.58;;;;;;;2.05;68.95;102947.59;5108165;28;20044;-66
2022/03/23 06:02:40;;;;;;;36.50;18.75;;;;;;;2.11;68.78;102942.66;5111148;28;20139;-67
2022/03/23 06:05:10;;;;;;;42.38;19.33;;;;;;;2.21;69.21;102949.06;5112733;27;20036;-67
2022/03/23 06:07:37;;;;;;;38.17;20.35;;;;;;;2.38;69.25;102952.31;5112737;27;20542;-66
2022/03/23 06:10:07;;;;;;;43.38;19.85;;;;;;;2.60;69.88;102949.69;5116077;27;20036;-67
2022/03/23 06:12:34;;;;;;;38.65;19.17;;;;;;;2.78;68.26;102952.09;5108486;28;20127;-67
2022/03/23 06:15:03;;;;;;;37.88;18.52;;;;;;;2.86;67.69;102954.06;5112864;27;20032;-66
2022/03/23 06:17:30;;;;;;;36.45;19.27;;;;;;;2.97;67.70;102957.03;5112249;28;20085;-68
2022/03/23 06:19:57;;;;;;;37.20;19.23;;;;;;;3.07;66.97;102964.34;5110905;28;20050;-67
2022/03/23 06:22:25;;;;;;;37.85;19.25;;;;;;;3.09;66.38;102958.38;5110496;28;20048;-67
2022/03/23 06:24:53;;;;;;;36.03;19.33;;;;;;;3.10;66.17;102959.25;5111368;27;20532;-66
2022/03/23 06:27:21;;;;;;;32.85;19.10;;;;;;;3.14;65.97;102961.13;5120029;27;20036;-66
2022/03/23 06:29:48;;;;;;;35.28;19.35;;;;;;;3.24;66.41;102963.22;5112346;27;20072;-65
2022/03/23 06:32:17;;;;;;;36.45;19.33;;;;;;;3.35;65.94;102968.78;5104784;27;20067;-66
2022/03/23 06:34:45;;;;;;;39.90;18.67;;;;;;;3.45;65.39;102966.50;5105066;27;20079;-65
2022/03/23 06:37:12;;;;;;;44.60;19.88;;;;;;;3.53;65.00;102965.94;5110767;27;20038;-65
2022/03/23 06:39:39;;;;;;;38.53;19.17;;;;;;;3.66;64.94;102968.94;5121701;27;20075;-66
2022/03/23 06:42:06;;;;;;;39.83;19.33;;;;;;;3.78;64.66;102973.66;5121007;27;20043;-66
2022/03/23 06:44:33;;;;;;;39.25;19.58;;;;;;;3.92;64.53;102971.47;5107790;27;20044;-66
2022/03/23 06:47:00;;;;;;;34.60;19.52;;;;;;;4.06;64.27;102974.53;5121785;27;20047;-65
2022/03/23 06:49:28;;;;;;;38.35;19.00;;;;;;;4.19;64.13;102974.94;5113549;27;20048;-67
2022/03/23 06:51:55;;;;;;;34.70;18.98;;;;;;;4.34;63.78;102969.28;5115296;27;20134;-65
2022/03/23 06:54:22;;;;;;;34.05;18.73;;;;;;;4.49;63.52;102971.47;5116483;27;20476;-65
2022/03/23 06:56:51;;;;;;;32.35;17.83;;;;;;;4.63;63.35;102981.44;5109826;28;20105;-65
2022/03/23 06:59:20;;;;;;;40.33;19.50;;;;;;;4.77;63.39;102968.75;5113436;27;20078;-66
2022/03/23 07:01:47;;;;;;;33.65;19.25;;;;;;;4.93;63.16;102972.69;5120337;27;20036;-66
2022/03/23 07:04:15;;;;;;;32.13;18.73;;;;;;;5.12;62.88;102977.56;5112690;27;20098;-67
2022/03/23 07:06:42;;;;;;;35.85;18.63;;;;;;;5.32;62.58;102982.44;5112448;27;20046;-67
2022/03/23 07:11:56;;;;;;;28.75;17.20;;;;;;;5.78;61.88;102982.69;5112022;28;20047;-67
2022/03/23 07:14:23;;;;;;;34.63;18.13;;;;;;;6.01;61.58;102979.78;5112456;28;20036;-67
2022/03/23 07:16:51;;;;;;;32.00;18.05;;;;;;;6.22;61.17;102988.13;5109837;27;20044;-66
2022/03/23 07:19:18;;;;;;;32.80;18.08;;;;;;;6.43;60.90;102981.56;5119139;27;20111;-67
2022/03/23 07:21:45;;;;;;;41.40;20.13;;;;;;;6.66;60.57;102986.44;5123116;27;20441;-66
2022/03/23 07:24:12;;;;;;;44.10;19.70;;;;;;;6.84;59.84;102983.25;5121306;27;20036;-66
2022/03/23 07:26:39;;;;;;;32.03;18.00;;;;;;;7.04;59.87;102983.66;5114784;27;20127;-67
2022/03/23 07:29:07;;;;;;;35.38;17.88;;;;;;;7.26;59.35;102991.94;5113860;27;20405;-66
2022/03/23 07:31:34;;;;;;;42.80;18.65;;;;;;;7.45;59.07;102991.38;5111329;27;20036;-65
2022/03/23 07:34:03;;;;;;;31.23;18.33;;;;;;;7.66;58.45;102996.97;5115888;27;20050;-66
2022/03/23 07:36:34;;;;;;;36.15;17.95;;;;;;;7.87;58.06;102993.81;5115195;27;20048;-66
2022/03/23 07:39:01;;;;;;;32.60;17.95;;;;;;;8.07;57.90;102994.09;5116940;27;20062;-67
2022/03/23 07:41:28;;;;;;;34.50;17.83;;;;;;;8.25;57.52;102996.09;5112979;27;20040;-67
2022/03/23 07:43:55;;;;;;;33.03;17.08;;;;;;;8.44;56.87;102992.00;5113186;27;20102;-66
2022/03/23 07:46:22;;;;;;;34.25;17.23;;;;;;;8.63;56.59;103000.13;5112722;27;20036;-66
2022/03/23 07:48:49;;;;;;;37.30;17.85;;;;;;;8.80;56.48;102998.59;5111800;27;20052;-67
2022/03/23 07:51:17;;;;;;;31.20;17.52;;;;;;;8.98;56.19;103000.56;5111368;27;20043;-67
2022/03/23 07:53:44;;;;;;;34.13;18.25;;;;;;;9.15;55.40;102999.84;5112819;27;20089;-66
2022/03/23 07:56:11;;;;;;;28.92;17.52;;;;;;;9.32;54.70;102998.25;5111790;27;20032;-66
2022/03/23 07:58:38;;;;;;;42.75;18.65;;;;;;;9.46;54.17;103005.41;5112589;27;20481;-67
2022/03/23 08:01:05;;;;;;;30.98;17.50;;;;;;;9.62;53.59;103002.00;5111956;27;20527;-67
2022/03/23 08:03:32;;;;;;;29.20;17.02;;;;;;;9.77;51.97;103001.25;5112189;27;20147;-67
2022/03/23 08:05:59;;;;;;;41.80;17.92;;;;;;;9.92;52.29;103007.50;5108994;28;20044;-66
2022/03/23 08:08:26;;;;;;;34.08;17.23;;;;;;;10.06;51.92;103007.59;5111896;27;20102;-67
2022/03/23 08:10:54;;;;;;;32.42;18.10;;;;;;;10.20;51.90;103000.69;5111986;28;20614;-67
2022/03/23 08:13:21;;;;;;;28.35;16.95;;;;;;;10.36;50.58;103003.38;5115436;27;20043;-67
2022/03/23 08:15:49;;;;;;;30.73;17.70;;;;;;;10.52;50.60;102999.09;5114753;27;20080;-66
2022/03/23 08:18:21;;;;;;;36.05;18.95;;;;;;;10.70;50.67;103006.22;5115874;27;20039;-67
2022/03/23 08:20:49;;;;;;;48.17;18.92;;;;;;;10.86;49.37;103007.16;5114356;27;20071;-67
2022/03/23 08:23:16;;;;;;;44.35;18.50;;;;;;;10.98;48.20;103003.66;5115278;27;20040;-67
2022/03/23 08:25:43;;;;;;;28.90;17.40;;;;;;;11.09;48.81;102996.66;5115128;27;20087;-68
2022/03/23 08:28:17;;;;;;;44.47;18.80;;;;;;;11.23;49.27;102998.44;5113483;27;20040;-67
2022/03/23 08:30:45;;;;;;;35.83;18.45;;;;;;;11.37;49.12;102998.44;5114207;27;20048;-66
2022/03/23 08:33:12;;;;;;;30.58;17.27;;;;;;;11.53;49.21;103004.63;5114954;27;20089;-67
2022/03/23 08:35:40;;;;;;;35.03;17.98;;;;;;;11.66;49.11;103006.34;5113631;27;20044;-66
2022/03/23 08:38:07;;;;;;;36.40;18.48;;;;;;;11.76;48.78;103000.19;5113829;27;20130;-66
2022/03/23 08:40:35;;;;;;;32.38;17.65;;;;;;;11.89;47.58;103005.47;5115041;28;20051;-66
2022/03/23 08:43:03;;;;;;;33.30;18.08;;;;;;;11.99;47.50;103003.75;5114666;27;20545;-68
2022/03/23 08:45:30;;;;;;;31.73;17.35;;;;;;;12.08;47.79;103001.94;5114709;27;20047;-67
2022/03/23 08:47:57;;;;;;;32.90;18.50;;;;;;;12.21;48.17;103004.56;5114823;27;20056;-67
2022/03/23 08:50:24;;;;;;;33.53;18.58;;;;;;;12.34;48.15;103006.28;5106535;28;20044;-67
2022/03/23 08:52:53;;;;;;;35.83;19.25;;;;;;;12.45;48.36;103000.97;5111409;27;20474;-66
2022/03/23 08:55:23;;;;;;;40.50;19.13;;;;;;;12.55;48.31;103009.75;5113453;28;20115;-66
2022/03/23 08:57:50;;;;;;;36.13;18.45;;;;;;;12.65;48.43;103003.53;5113313;27;20044;-67
2022/03/23 09:00:17;;;;;;;33.00;18.73;;;;;;;12.74;48.36;103006.13;5114073;27;20040;-66
2022/03/23 09:02:44;;;;;;;42.05;19.23;;;;;;;12.81;48.10;103007.00;5114615;28;20028;-66
2022/03/23 09:05:14;;;;;;;70.03;20.80;;;;;;;12.92;48.34;103008.69;5114057;27;20086;-66
2022/03/23 09:07:42;;;;;;;34.38;19.15;;;;;;;13.04;48.17;103001.56;5114515;27;20044;-66
2022/03/23 09:10:13;;;;;;;32.17;19.95;;;;;;;13.17;47.37;103007.66;5113822;28;20151;-66
2022/03/23 09:12:42;;;;;;;44.88;20.67;;;;;;;13.30;46.85;103004.91;5113314;27;20046;-66
2022/03/23 09:15:13;;;;;;;47.70;20.85;;;;;;;13.39;46.89;103003.94;5113856;28;20044;-67
2022/03/23 09:17:42;;;;;;;46.85;20.10;;;;;;;13.49;46.62;103003.91;5114151;27;20770;-67
2022/03/23 09:20:12;;;;;;;33.00;18.75;;;;;;;13.60;46.55;103005.59;5113486;27;20040;-67
2022/03/23 09:22:40;;;;;;;42.95;19.30;;;;;;;13.73;46.54;103006.34;5113949;27;20048;-67
2022/03/23 09:25:14;;;;;;;69.55;22.83;;;;;;;13.88;44.45;103003.56;5113907;27;20038;-67
2022/03/23 09:27:43;;;;;;;34.88;20.48;;;;;;;13.96;44.55;103004.38;5106757;28;20050;-67
2022/03/23 09:30:13;;;;;;;42.75;20.00;;;;;;;14.03;43.89;103001.66;5113479;27;20500;-66
2022/03/23 09:32:43;;;;;;;31.20;19.40;;;;;;;14.07;44.10;103004.25;5106689;28;20055;-67
2022/03/23 09:35:11;;;;;;;49.25;21.30;;;;;;;14.20;44.73;102990.84;5113763;27;20036;-66
2022/03/23 09:37:49;;;;;;;50.17;20.65;;;;;;;14.34;44.66;102996.00;5106875;27;20513;-68
2022/03/23 09:40:32;;;;;;;44.22;20.38;;;;;;;14.46;42.96;102998.50;5111017;27;20068;-67
2022/03/23 09:43:11;;;;;;;49.08;21.55;;;;;;;14.54;42.85;102995.78;5114201;27;20040;-66
2022/03/23 09:48:09;;;;;;;70.13;21.83;;;;;;;14.77;42.52;102990.19;5113472;27;20062;-67
2022/03/23 09:50:41;;;;;;;45.05;20.90;;;;;;;14.88;43.24;102990.91;5111505;28;20040;-67
2022/03/23 09:53:09;;;;;;;41.97;20.60;;;;;;;14.97;42.64;102997.00;5114487;27;20601;-68
2022/03/23 09:55:36;;;;;;;37.53;21.17;;;;;;;15.06;41.95;102994.19;5111246;27;20785;-66
2022/03/23 09:58:06;;;;;;;32.35;19.48;;;;;;;15.16;42.69;102994.94;5114678;27;20050;-67
2022/03/23 10:00:41;;;;;;;41.13;20.02;;;;;;;15.26;41.82;102993.00;5113790;27;20040;-67
2022/03/23 10:03:14;;;;;;;42.22;20.83;;;;;;;15.33;41.23;102997.31;5113072;27;20093;-66
2022/03/23 10:06:18;;;;;;;37.10;20.65;;;;;;;15.39;41.45;102999.88;5113088;27;20089;-66
2022/03/23 10:09:11;;;;;;;39.95;21.13;;;;;;;15.56;40.66;102999.63;5104895;28;20483;-67
2022/03/23 10:12:28;;;;;;;37.40;20.02;;;;;;;15.72;40.11;102996.69;5113609;28;20036;-67
2022/03/23 10:15:38;;;;;;;39.92;21.52;;;;;;;15.89;40.03;103002.59;5112848;27;20805;-66
2022/03/23 10:18:20;;;;;;;32.38;21.27;;;;;;;16.04;39.51;102996.09;5108915;27;20119;-67
2022/03/23 10:20:48;;;;;;;55.47;21.52;;;;;;;16.18;39.31;102994.97;5113213;28;20046;-67
2022/03/23 10:23:21;;;;;;;32.97;20.17;;;;;;;16.30;39.13;102989.41;5113142;27;20046;-66
2022/03/23 10:25:49;;;;;;;40.22;21.15;;;;;;;16.43;38.80;102987.38;5108769;27;20415;-67
2022/03/23 10:28:18;;;;;;;39.50;21.08;;;;;;;16.55;38.31;102989.78;5112921;27;20823;-68
2022/03/23 10:30:48;;;;;;;40.08;21.40;;;;;;;16.67;37.20;102982.44;5113199;27;20075;-67
2022/03/23 10:33:24;;;;;;;46.13;20.75;;;;;;;16.80;35.77;102988.34;5112802;27;20056;-67
2022/03/23 10:35:51;;;;;;;37.85;21.35;;;;;;;16.95;37.49;102990.69;5111236;28;20044;-67
2022/03/23 10:38:22;;;;;;;33.83;20.77;;;;;;;17.13;35.95;102983.19;5113194;27;20056;-68
2022/03/23 10:40:52;;;;;;;38.58;19.63;;;;;;;17.22;33.34;102978.50;5107125;27;20051;-67
2022/03/23 10:43:36;;;;;;;56.63;21.00;;;;;;;17.42;34.90;102982.44;5112262;27;20040;-68
2022/03/23 10:46:08;;;;;;;35.42;20.45;;;;;;;17.61;33.74;102974.88;5112475;27;20040;-67
2022/03/23 10:48:36;;;;;;;33.38;19.85;;;;;;;17.69;32.79;102970.19;5112412;27;20501;-67
2022/03/23 10:51:04;;;;;;;30.30;18.83;;;;;;;17.80;31.24;102972.59;5112790;27;20036;-67
2022/03/23 10:53:40;;;;;;;27.92;18.40;;;;;;;17.93;31.62;102970.47;5111201;27;20071;-67
2022/03/23 10:56:07;;;;;;;29.02;18.02;;;;;;;18.04;30.17;102970.19;5112028;28;20596;-67
2022/03/23 10:58:40;;;;;;;32.90;20.38;;;;;;;18.13;30.14;102964.59;5111497;28;20070;-66
2022/03/23 11:01:09;;;;;;;30.23;18.85;;;;;;;18.19;29.58;102962.66;5111853;27;20098;-66
2022/03/23 11:03:48;;;;;;;36.65;19.63;;;;;;;18.25;29.27;102963.38;5112389;27;20403;-68
2022/03/23 11:06:27;;;;;;;42.20;19.63;;;;;;;18.37;30.07;102963.91;5106303;28;20059;-66
2022/03/23 11:08:54;;;;;;;29.58;17.98;;;;;;;18.55;30.01;102962.47;5109997;27;20066;-67
2022/03/23 11:16:56;;;;;;;37.47;19.75;;;;;;;18.73;30.17;102958.38;5109169;28;20040;-67
2022/03/23 11:19:26;;;;;;;29.83;19.10;;;;;;;18.81;28.96;102956.34;5112984;27;20582;-67
2022/03/23 11:21:57;;;;;;;36.38;19.88;;;;;;;18.95;29.94;102955.06;5112082;27;20553;-68
2022/03/23 11:24:27;;;;;;;35.83;18.92;;;;;;;19.03;29.34;102950.34;5108220;27;20044;-66
2022/03/23 11:26:55;;;;;;;29.83;19.55;;;;;;;19.13;28.70;102950.91;5112492;27;20122;-68
2022/03/23 11:29:23;;;;;;;33.15;20.27;;;;;;;19.17;28.96;102950.75;5126187;27;20145;-67
2022/03/23 11:31:54;;;;;;;39.92;20.15;;;;;;;19.25;28.90;102950.47;5113275;27;20119;-67
2022/03/23 11:34:24;;;;;;;30.67;19.08;;;;;;;19.31;27.73;102954.75;5127911;27;20051;-67
2022/03/23 11:36:53;;;;;;;28.55;19.75;;;;;;;19.42;28.02;102949.91;5118026;27;20125;-66
2022/03/23 11:39:22;;;;;;;32.38;19.05;;;;;;;19.52;27.60;102948.66;5118718;27;20048;-66
2022/03/23 11:41:53;;;;;;;31.50;19.40;;;;;;;19.60;27.92;102948.41;5105094;27;20184;-66
2022/03/23 11:44:21;;;;;;;34.33;17.83;;;;;;;19.63;26.84;102944.75;5125972;27;20044;-67